Time;durP1;ratioP1;P1;durP2;ratioP2;P2;SDS_P1;SDS_P2;PMS_P1;PMS_P2;Temp;Humidity;BMP_temperature;BMP_pressure;BME280_temperature;BME280_humidity;BME280_pressure;Samples;Min_cycle;Max_cycle;Signal;HPM_P1;HPM_P2
2021/06/09 00:00:25;;;;;;;24.77;21.70;;;18.70;75.70;;;;;;5070854;28;20025;-72
2021/06/09 00:02:50;;;;;;;23.08;20.58;;;18.60;75.90;;;;;;5069211;28;20051;-72
2021/06/09 00:05:16;;;;;;;23.83;21.30;;;18.50;76.30;;;;;;5069504;28;20047;-72
2021/06/09 00:07:42;;;;;;;22.52;19.63;;;18.40;76.60;;;;;;5086961;28;20031;-72
2021/06/09 00:10:08;;;;;;;23.17;20.23;;;18.30;76.80;;;;;;5085787;28;20029;-72
2021/06/09 00:12:34;;;;;;;23.27;18.63;;;18.30;77.00;;;;;;5071103;28;20060;-71
2021/06/09 00:15:00;;;;;;;20.50;18.42;;;18.30;77.30;;;;;;5052762;28;20059;-71
2021/06/09 00:17:27;;;;;;;27.23;22.92;;;18.20;77.50;;;;;;5070477;28;20025;-72
2021/06/09 00:19:53;;;;;;;26.73;22.90;;;18.20;77.50;;;;;;5069643;28;20045;-73
2021/06/09 00:22:19;;;;;;;28.58;23.55;;;18.30;77.20;;;;;;5069804;28;20046;-72
2021/06/09 00:24:45;;;;;;;25.25;22.40;;;18.30;77.10;;;;;;5071199;28;20033;-72
2021/06/09 00:27:12;;;;;;;28.05;22.15;;;18.40;77.00;;;;;;5070730;28;20024;-72
2021/06/09 00:29:38;;;;;;;27.10;22.95;;;18.40;76.90;;;;;;5053777;28;20465;-71
2021/06/09 00:32:04;;;;;;;23.80;21.38;;;18.50;77.00;;;;;;5070620;28;20085;-72
2021/06/09 00:34:30;;;;;;;24.80;21.40;;;18.40;77.00;;;;;;5037065;28;20131;-72
2021/06/09 00:36:55;;;;;;;25.30;21.70;;;18.40;77.00;;;;;;5069412;28;20116;-72
2021/06/09 00:39:21;;;;;;;25.63;22.20;;;18.30;77.20;;;;;;5053269;28;20454;-72
2021/06/09 00:41:47;;;;;;;23.27;20.90;;;18.30;77.50;;;;;;5056038;28;20495;-73
2021/06/09 00:44:13;;;;;;;22.48;20.27;;;18.30;77.40;;;;;;5068995;28;20138;-71
2021/06/09 00:46:41;;;;;;;23.30;19.60;;;18.20;77.50;;;;;;5037292;28;20037;-72
2021/06/09 00:49:07;;;;;;;22.48;20.13;;;18.10;77.60;;;;;;5069209;28;20029;-72
2021/06/09 00:51:33;;;;;;;23.83;20.88;;;18.10;77.90;;;;;;5070017;28;20081;-71
2021/06/09 00:54:06;;;;;;;23.13;20.67;;;18.10;78.00;;;;;;5077877;28;20099;-71
2021/06/09 00:56:36;;;;;;;23.52;21.00;;;18.10;77.90;;;;;;5051495;28;20372;-71
2021/06/09 00:59:03;;;;;;;24.63;21.80;;;18.10;77.80;;;;;;5058909;28;20038;-71
2021/06/09 01:01:30;;;;;;;24.50;21.75;;;18.10;77.80;;;;;;5071356;28;20041;-71
2021/06/09 01:03:56;;;;;;;26.10;22.13;;;18.10;77.80;;;;;;5086085;28;20020;-75
2021/06/09 01:06:22;;;;;;;23.30;20.90;;;18.10;77.70;;;;;;5069365;28;20120;-71
2021/06/09 01:08:50;;;;;;;23.52;21.10;;;18.10;77.60;;;;;;5069632;28;20059;-71
2021/06/09 01:11:20;;;;;;;25.35;22.73;;;18.10;77.60;;;;;;5070288;28;20029;-72
2021/06/09 01:13:46;;;;;;;24.45;21.88;;;18.10;77.70;;;;;;5069376;28;20047;-72
2021/06/09 01:16:12;;;;;;;26.20;23.42;;;18.10;77.80;;;;;;5070710;28;20025;-72
2021/06/09 01:18:38;;;;;;;26.23;23.35;;;18.10;77.90;;;;;;5074403;28;20031;-73
2021/06/09 01:21:05;;;;;;;25.38;22.77;;;18.00;78.00;;;;;;5072074;28;20063;-71
2021/06/09 01:23:31;;;;;;;24.98;22.33;;;17.90;77.90;;;;;;5073303;28;20029;-71
2021/06/09 01:25:58;;;;;;;27.30;22.65;;;17.90;78.00;;;;;;5074375;28;20032;-77
2021/06/09 01:28:24;;;;;;;24.77;22.27;;;17.90;78.10;;;;;;5074210;28;20025;-72
2021/06/09 01:30:51;;;;;;;25.13;22.42;;;17.90;78.10;;;;;;5073822;28;20062;-71
2021/06/09 01:33:17;;;;;;;25.50;22.38;;;17.90;78.20;;;;;;5072986;28;20084;-71
2021/06/09 01:35:44;;;;;;;24.10;21.65;;;17.90;78.30;;;;;;5072840;28;20032;-71
2021/06/09 01:38:10;;;;;;;24.58;22.13;;;17.90;78.30;;;;;;5072144;28;20412;-72
2021/06/09 01:40:36;;;;;;;25.10;22.40;;;17.90;78.30;;;;;;5073072;28;20162;-71
2021/06/09 01:43:03;;;;;;;24.70;22.02;;;17.80;78.40;;;;;;5073074;28;20031;-72
2021/06/09 01:45:31;;;;;;;24.95;22.42;;;17.70;78.50;;;;;;5089368;28;20131;-72
2021/06/09 01:47:59;;;;;;;25.17;22.48;;;17.60;78.70;;;;;;5073989;28;20025;-77
2021/06/09 01:50:26;;;;;;;26.67;23.73;;;17.50;79.10;;;;;;5073642;28;20021;-72
2021/06/09 01:52:54;;;;;;;26.10;23.42;;;17.40;79.40;;;;;;5072065;28;20086;-72
2021/06/09 01:55:21;;;;;;;26.42;23.65;;;17.50;79.60;;;;;;5051988;28;20687;-73
2021/06/09 01:57:47;;;;;;;27.25;24.33;;;17.50;79.50;;;;;;5053844;28;20021;-72
2021/06/09 02:00:26;;;;;;;27.70;24.83;;;17.50;79.40;;;;;;5051918;28;20061;-73
2021/06/09 02:02:59;;;;;;;26.17;23.50;;;17.40;79.60;;;;;;5053953;28;20021;-72
2021/06/09 02:05:34;;;;;;;27.05;24.15;;;17.30;79.80;;;;;;5052257;28;20013;-72
2021/06/09 02:08:03;;;;;;;28.23;25.13;;;17.30;79.80;;;;;;5060943;28;20109;-75
2021/06/09 02:10:29;;;;;;;27.58;24.65;;;17.20;79.90;;;;;;5072256;28;20036;-72
2021/06/09 02:13:00;;;;;;;27.40;24.50;;;17.20;80.00;;;;;;5039203;28;20384;-72
2021/06/09 02:15:27;;;;;;;27.30;24.50;;;17.20;80.40;;;;;;5073117;28;20028;-73
2021/06/09 02:17:59;;;;;;;27.85;24.73;;;17.20;80.50;;;;;;5071929;28;20120;-72
2021/06/09 02:20:27;;;;;;;27.35;24.35;;;17.30;80.40;;;;;;5071793;28;20043;-72
2021/06/09 02:22:54;;;;;;;27.15;24.25;;;17.30;80.20;;;;;;5072400;28;20229;-73
2021/06/09 02:25:20;;;;;;;25.98;23.17;;;17.30;79.90;;;;;;5071331;28;20427;-73
2021/06/09 02:27:46;;;;;;;26.83;24.02;;;17.40;79.70;;;;;;5071402;28;20036;-72
2021/06/09 02:30:13;;;;;;;25.77;23.08;;;17.40;79.60;;;;;;5070902;28;20342;-73
2021/06/09 02:32:41;;;;;;;29.70;25.00;;;17.40;79.70;;;;;;5071604;28;20373;-71
2021/06/09 02:35:15;;;;;;;27.70;24.85;;;17.40;79.50;;;;;;5071254;28;20047;-72
2021/06/09 02:37:41;;;;;;;27.98;25.27;;;17.40;79.80;;;;;;5072064;28;20020;-72
2021/06/09 02:40:08;;;;;;;27.60;24.80;;;17.30;79.90;;;;;;5072601;28;20112;-73
2021/06/09 02:42:36;;;;;;;29.27;25.60;;;17.30;80.00;;;;;;5092069;28;20024;-72
2021/06/09 02:45:06;;;;;;;27.75;24.83;;;17.20;80.00;;;;;;5093183;28;20052;-71
2021/06/09 02:47:33;;;;;;;27.58;24.67;;;17.10;80.30;;;;;;5083954;28;20025;-72
2021/06/09 02:49:59;;;;;;;28.77;25.65;;;17.10;80.50;;;;;;5088112;28;20034;-72
2021/06/09 02:52:30;;;;;;;30.38;27.20;;;17.10;80.50;;;;;;5087641;28;20085;-71
2021/06/09 02:55:08;;;;;;;30.25;26.60;;;17.00;80.70;;;;;;5071020;28;20115;-71
2021/06/09 02:57:54;;;;;;;26.90;24.05;;;16.90;81.00;;;;;;5071648;28;20028;-71
2021/06/09 03:00:29;;;;;;;28.65;25.13;;;16.90;81.20;;;;;;5070376;28;20078;-72
2021/06/09 03:03:07;;;;;;;27.45;24.70;;;16.80;81.40;;;;;;5072797;28;20031;-70
2021/06/09 03:05:42;;;;;;;27.30;23.58;;;16.70;81.60;;;;;;5072579;28;20059;-71
2021/06/09 03:08:32;;;;;;;25.38;22.58;;;16.70;81.70;;;;;;5070457;28;20041;-76
2021/06/09 03:11:10;;;;;;;28.80;24.40;;;16.80;81.50;;;;;;5071150;28;20119;-71
2021/06/09 03:16:43;;;;;;;25.27;22.58;;;16.90;81.30;;;;;;5071692;28;20354;-72
2021/06/09 03:19:16;;;;;;;24.77;22.17;;;16.90;81.10;;;;;;5070081;28;20059;-77
2021/06/09 03:21:55;;;;;;;24.63;22.02;;;16.90;81.00;;;;;;5071984;28;20055;-73
2021/06/09 03:24:30;;;;;;;23.65;21.27;;;16.90;81.10;;;;;;5069842;28;20070;-72
2021/06/09 03:27:04;;;;;;;24.25;21.65;;;16.90;81.00;;;;;;5070463;28;20021;-72
2021/06/09 03:29:53;;;;;;;25.15;22.48;;;16.80;81.20;;;;;;5071137;28;20020;-72
2021/06/09 03:32:30;;;;;;;23.77;21.25;;;16.90;81.30;;;;;;5070994;28;20032;-72
2021/06/09 03:35:17;;;;;;;25.35;22.75;;;16.90;81.20;;;;;;5072471;28;20024;-71
2021/06/09 03:37:47;;;;;;;24.90;21.13;;;16.90;81.10;;;;;;5072206;28;20056;-72
2021/06/09 03:40:21;;;;;;;24.00;21.55;;;16.90;81.20;;;;;;5070180;28;20040;-72
2021/06/09 03:43:02;;;;;;;25.00;21.00;;;16.90;81.10;;;;;;5069703;28;20025;-71
2021/06/09 03:45:32;;;;;;;25.08;21.15;;;16.90;81.00;;;;;;5069724;28;20144;-71
2021/06/09 03:48:00;;;;;;;24.35;21.75;;;17.00;80.90;;;;;;5070847;28;20089;-72
2021/06/09 03:50:28;;;;;;;23.70;21.17;;;17.00;80.80;;;;;;5071054;28;20043;-73
2021/06/09 03:53:02;;;;;;;23.65;21.25;;;17.00;80.70;;;;;;5070759;28;20021;-73
2021/06/09 03:55:29;;;;;;;23.45;20.92;;;17.10;80.70;;;;;;5085555;28;20476;-72
2021/06/09 03:57:57;;;;;;;22.10;19.80;;;17.20;80.40;;;;;;5071816;28;20035;-73
2021/06/09 04:00:24;;;;;;;23.58;21.08;;;17.30;80.00;;;;;;5070706;28;20036;-73
2021/06/09 04:02:51;;;;;;;23.20;20.90;;;17.40;79.70;;;;;;5054040;28;20032;-71
2021/06/09 04:05:18;;;;;;;22.45;20.15;;;17.40;79.50;;;;;;5069987;28;20528;-72
2021/06/09 04:07:46;;;;;;;23.10;20.77;;;17.50;79.30;;;;;;5070274;28;20029;-72
2021/06/09 04:10:14;;;;;;;24.25;19.90;;;17.60;79.00;;;;;;5087142;28;20067;-76
2021/06/09 04:12:40;;;;;;;23.90;21.35;;;17.70;78.60;;;;;;5071831;28;20028;-72
2021/06/09 04:15:10;;;;;;;22.90;20.50;;;17.90;78.20;;;;;;5071438;28;20062;-72
2021/06/09 04:17:39;;;;;;;22.83;20.50;;;18.10;77.60;;;;;;5070702;28;20021;-72
2021/06/09 04:20:06;;;;;;;23.17;20.85;;;18.30;77.00;;;;;;5071513;28;20067;-72
2021/06/09 04:22:33;;;;;;;24.20;21.73;;;18.90;75.90;;;;;;5085999;28;20043;-72
2021/06/09 04:25:01;;;;;;;23.73;21.27;;;19.50;74.20;;;;;;5071899;28;20111;-72
2021/06/09 04:27:35;;;;;;;22.40;20.05;;;20.20;72.40;;;;;;5086355;28;20029;-72
2021/06/09 04:30:02;;;;;;;22.00;19.90;;;20.70;70.70;;;;;;5070104;28;20078;-71
2021/06/09 04:32:46;;;;;;;21.35;19.05;;;21.20;69.30;;;;;;5070486;28;20495;-72
2021/06/09 04:35:12;;;;;;;23.08;19.98;;;21.70;68.40;;;;;;5070439;28;20035;-73
2021/06/09 04:37:38;;;;;;;20.55;18.45;;;22.10;67.30;;;;;;5068946;28;20029;-71
2021/06/09 04:40:04;;;;;;;19.98;18.08;;;22.50;66.20;;;;;;5069713;28;20032;-72
2021/06/09 04:42:30;;;;;;;20.38;18.30;;;22.80;65.10;;;;;;5069164;28;20123;-72
2021/06/09 04:44:56;;;;;;;22.50;19.55;;;23.10;64.40;;;;;;5069249;28;20480;-72
2021/06/09 04:47:27;;;;;;;20.77;18.73;;;23.40;63.60;;;;;;5070242;28;20029;-72
2021/06/09 04:49:53;;;;;;;21.88;19.58;;;23.70;63.00;;;;;;5071446;28;20021;-72
2021/06/09 04:52:19;;;;;;;20.38;18.23;;;24.00;62.20;;;;;;5073000;28;20065;-77
2021/06/09 04:54:44;;;;;;;21.17;19.05;;;24.20;61.40;;;;;;5073747;28;20029;-71
2021/06/09 04:57:10;;;;;;;22.20;20.10;;;24.60;60.80;;;;;;5082605;28;20033;-71
2021/06/09 04:59:36;;;;;;;23.38;19.85;;;24.90;60.40;;;;;;5079482;28;20017;-71
2021/06/09 05:02:02;;;;;;;23.35;21.20;;;25.20;59.80;;;;;;5073712;28;20064;-71
2021/06/09 05:04:28;;;;;;;26.25;23.75;;;25.30;59.30;;;;;;5072992;28;20466;-71
2021/06/09 05:06:54;;;;;;;26.45;22.80;;;25.70;58.40;;;;;;5074052;28;20047;-73
2021/06/09 05:09:20;;;;;;;23.50;21.17;;;25.90;57.60;;;;;;5073047;28;20489;-78
2021/06/09 05:12:15;;;;;;;24.85;22.30;;;26.00;56.90;;;;;;5088732;28;20036;-72
2021/06/09 05:14:43;;;;;;;24.23;21.75;;;26.20;56.30;;;;;;5073702;28;20208;-72
2021/06/09 05:17:10;;;;;;;23.00;20.77;;;26.50;55.60;;;;;;5073324;28;20021;-71
2021/06/09 05:19:39;;;;;;;23.65;21.20;;;26.70;55.00;;;;;;5074202;28;20024;-72
2021/06/09 05:22:12;;;;;;;20.73;18.83;;;27.00;54.30;;;;;;5072984;28;20024;-72
2021/06/09 05:24:39;;;;;;;22.40;20.30;;;27.30;53.60;;;;;;5072736;28;20027;-71
2021/06/09 05:27:06;;;;;;;22.25;20.10;;;27.50;52.90;;;;;;5074354;28;20377;-72
2021/06/09 05:29:33;;;;;;;20.20;18.30;;;27.70;52.50;;;;;;5073239;28;20131;-72
2021/06/09 05:32:00;;;;;;;20.35;18.45;;;28.00;51.80;;;;;;5074161;28;20051;-71
2021/06/09 05:34:26;;;;;;;19.70;18.00;;;28.40;51.40;;;;;;5072192;28;20028;-71
2021/06/09 05:36:52;;;;;;;19.98;18.15;;;28.60;50.60;;;;;;5072903;28;20029;-72
2021/06/09 05:39:18;;;;;;;19.88;18.13;;;28.70;50.40;;;;;;5072776;28;20032;-72
2021/06/09 05:41:47;;;;;;;20.20;18.40;;;28.80;50.20;;;;;;5054088;28;20041;-72
2021/06/09 05:44:14;;;;;;;20.80;18.98;;;29.00;49.90;;;;;;5069413;28;20033;-72
2021/06/09 05:46:40;;;;;;;19.48;17.67;;;29.20;49.80;;;;;;5051700;28;20168;-72
2021/06/09 05:49:06;;;;;;;20.60;18.75;;;29.40;49.40;;;;;;5070260;28;20064;-71
2021/06/09 05:51:32;;;;;;;20.10;18.17;;;29.50;48.70;;;;;;5069172;28;20095;-72
2021/06/09 05:53:58;;;;;;;19.27;17.48;;;29.50;48.70;;;;;;5070029;28;20025;-72
2021/06/09 05:56:24;;;;;;;20.55;18.50;;;29.70;48.70;;;;;;5035959;28;20098;-76
2021/06/09 05:58:50;;;;;;;21.13;19.13;;;29.80;48.40;;;;;;5052392;28;20477;-71
2021/06/09 06:01:16;;;;;;;20.95;19.02;;;30.00;48.20;;;;;;5054045;28;20091;-72
2021/06/09 06:03:44;;;;;;;21.45;19.25;;;29.90;47.70;;;;;;5068131;28;20033;-72
2021/06/09 06:06:12;;;;;;;21.48;19.17;;;30.10;47.70;;;;;;5068924;28;20526;-72
2021/06/09 06:08:42;;;;;;;21.45;19.30;;;30.10;47.40;;;;;;5069085;28;20477;-74
2021/06/09 06:11:13;;;;;;;22.73;18.23;;;30.30;47.40;;;;;;5072196;28;20036;-72
2021/06/09 06:13:46;;;;;;;17.30;15.67;;;30.60;46.90;;;;;;5087578;28;20016;-72
2021/06/09 06:16:16;;;;;;;23.67;20.48;;;30.90;46.30;;;;;;5070683;28;20033;-72
2021/06/09 06:18:43;;;;;;;24.15;21.63;;;31.10;45.10;;;;;;5072769;28;20024;-72
2021/06/09 06:21:11;;;;;;;21.70;19.70;;;31.00;44.90;;;;;;5055669;28;20502;-72
2021/06/09 06:23:38;;;;;;;18.60;16.98;;;31.10;45.80;;;;;;5074962;28;20020;-71
2021/06/09 06:26:05;;;;;;;21.25;18.95;;;31.40;45.60;;;;;;5083497;28;20116;-72
2021/06/09 06:28:32;;;;;;;23.15;20.42;;;31.60;45.00;;;;;;5059087;28;20032;-73
2021/06/09 06:30:59;;;;;;;20.23;18.33;;;31.70;44.10;;;;;;5053489;28;20477;-73
2021/06/09 06:33:26;;;;;;;21.50;19.45;;;31.90;44.10;;;;;;5069455;28;20060;-72
2021/06/09 06:35:55;;;;;;;19.83;17.83;;;32.20;44.50;;;;;;5068366;28;20024;-72
2021/06/09 06:38:22;;;;;;;22.33;20.42;;;32.20;43.90;;;;;;5067226;28;20161;-73
2021/06/09 06:40:49;;;;;;;20.38;18.48;;;32.30;44.00;;;;;;5069746;28;20020;-72
2021/06/09 06:43:16;;;;;;;21.60;19.40;;;32.40;43.80;;;;;;5059811;28;20418;-74
2021/06/09 06:45:42;;;;;;;24.40;21.98;;;32.90;43.50;;;;;;5072572;28;20060;-72
2021/06/09 06:48:08;;;;;;;23.75;21.65;;;33.00;42.00;;;;;;5066720;28;21626;-75
2021/06/09 06:50:37;;;;;;;25.92;22.92;;;32.90;42.50;;;;;;5065833;28;20035;-73
2021/06/09 06:53:06;;;;;;;25.67;23.02;;;32.90;42.20;;;;;;5073188;28;20032;-74
2021/06/09 06:55:32;;;;;;;25.42;22.92;;;32.70;43.00;;;;;;5073781;28;20136;-77
2021/06/09 06:57:58;;;;;;;25.58;23.08;;;32.50;42.40;;;;;;5078702;28;20504;-72
2021/06/09 07:00:24;;;;;;;24.45;21.95;;;32.40;43.80;;;;;;5067708;28;20108;-73
2021/06/09 07:02:56;;;;;;;25.55;22.35;;;32.50;43.70;;;;;;5048407;28;20097;-73
2021/06/09 07:05:23;;;;;;;;;;;32.50;43.20;;;;;;5068191;28;20492;-73
2021/06/09 07:07:50;;;;;;;23.23;20.95;;;32.80;43.10;;;;;;5066401;28;19919;-73
2021/06/09 07:10:18;;;;;;;22.65;20.48;;;32.80;42.00;;;;;;5065621;28;20706;-72
2021/06/09 07:12:44;;;;;;;28.92;25.92;;;33.00;42.90;;;;;;5065460;28;20039;-72
2021/06/09 07:15:13;;;;;;;23.98;21.67;;;33.00;41.60;;;;;;5066116;28;20589;-72
2021/06/09 07:17:43;;;;;;;23.63;20.15;;;32.80;42.20;;;;;;5065183;28;20031;-74
2021/06/09 07:20:11;;;;;;;22.60;20.50;;;33.20;42.40;;;;;;5064946;28;20020;-71
2021/06/09 07:22:41;;;;;;;22.65;20.55;;;33.50;42.10;;;;;;5058475;28;20040;-71
2021/06/09 07:25:09;;;;;;;21.92;20.13;;;33.40;42.00;;;;;;5057883;28;20040;-72
2021/06/09 07:27:36;;;;;;;26.08;23.55;;;33.30;41.00;;;;;;5070968;28;20035;-76
2021/06/09 07:30:09;;;;;;;22.77;20.67;;;33.40;40.50;;;;;;5065039;28;20041;-72
2021/06/09 07:32:36;;;;;;;20.45;18.58;;;33.20;41.30;;;;;;5061901;28;20486;-76
2021/06/09 07:35:04;;;;;;;19.02;17.33;;;33.60;40.90;;;;;;5070373;28;20051;-75
2021/06/09 07:37:33;;;;;;;22.50;20.58;;;34.20;40.40;;;;;;5069077;28;20519;-72
2021/06/09 07:40:01;;;;;;;23.20;21.13;;;34.70;39.20;;;;;;5070166;28;20037;-72
2021/06/09 07:42:28;;;;;;;28.95;26.35;;;34.70;38.30;;;;;;5068700;28;20036;-72
2021/06/09 07:44:59;;;;;;;26.80;24.33;;;34.20;38.10;;;;;;5044206;28;20664;-71
2021/06/09 07:47:28;;;;;;;21.05;19.10;;;33.60;39.00;;;;;;5055526;28;20483;-71
2021/06/09 07:49:55;;;;;;;24.38;22.08;;;33.40;40.00;;;;;;5059790;28;20036;-71
2021/06/09 07:52:21;;;;;;;22.67;20.67;;;33.60;38.40;;;;;;5068392;28;20032;-72
2021/06/09 07:54:50;;;;;;;25.65;23.20;;;33.50;40.00;;;;;;5067926;28;20562;-72
2021/06/09 07:57:17;;;;;;;21.95;19.73;;;33.30;39.30;;;;;;5058171;28;20028;-72
2021/06/09 07:59:44;;;;;;;20.20;18.33;;;33.30;40.30;;;;;;5062850;28;20551;-72
2021/06/09 08:02:12;;;;;;;21.98;20.15;;;33.70;40.00;;;;;;5087553;28;20036;-72
2021/06/09 08:04:38;;;;;;;22.60;20.55;;;33.80;39.60;;;;;;5068913;28;20029;-77
2021/06/09 08:07:04;;;;;;;21.17;19.27;;;33.90;38.80;;;;;;5066447;28;20029;-72
2021/06/09 08:09:31;;;;;;;16.35;14.80;;;34.20;39.30;;;;;;5071580;28;20033;-72
2021/06/09 08:11:58;;;;;;;17.80;16.23;;;34.50;39.40;;;;;;5070160;28;20190;-73
2021/06/09 08:14:24;;;;;;;15.10;13.77;;;34.80;38.20;;;;;;5055162;28;20025;-72
2021/06/09 08:16:50;;;;;;;16.25;14.65;;;35.20;37.20;;;;;;5050615;28;20588;-72
2021/06/09 08:19:16;;;;;;;15.82;14.45;;;35.50;37.00;;;;;;5060694;28;20096;-73
2021/06/09 08:21:42;;;;;;;14.23;13.02;;;35.70;36.30;;;;;;5059030;28;20059;-74
2021/06/09 08:24:08;;;;;;;12.98;11.77;;;35.90;36.60;;;;;;5052002;28;20029;-72
2021/06/09 08:26:34;;;;;;;14.43;13.32;;;36.10;35.30;;;;;;5068496;28;20040;-72
2021/06/09 08:29:01;;;;;;;11.20;10.32;;;36.30;35.60;;;;;;5063109;28;20657;-72
2021/06/09 08:31:29;;;;;;;9.63;8.77;;;36.70;35.00;;;;;;5089157;28;20105;-72
2021/06/09 08:33:56;;;;;;;7.38;6.78;;;37.00;34.30;;;;;;5074617;28;20473;-72
2021/06/09 08:36:23;;;;;;;11.23;10.32;;;37.10;34.40;;;;;;5072051;28;20119;-73
2021/06/09 08:38:55;;;;;;;11.30;10.30;;;37.30;33.20;;;;;;5074292;28;20024;-74
2021/06/09 08:41:23;;;;;;;8.95;8.18;;;37.20;33.60;;;;;;5074667;28;20033;-72
2021/06/09 08:43:49;;;;;;;12.85;11.73;;;36.90;34.20;;;;;;5072468;28;20090;-72
2021/06/09 08:46:16;;;;;;;9.48;8.65;;;36.70;34.30;;;;;;5073964;28;20465;-72
2021/06/09 08:48:45;;;;;;;12.40;11.32;;;36.60;34.50;;;;;;5057457;28;20033;-77
2021/06/09 08:51:14;;;;;;;11.10;10.10;;;36.70;33.00;;;;;;5057425;28;20029;-73
2021/06/09 08:53:44;;;;;;;10.32;9.45;;;36.70;33.90;;;;;;5074243;28;20039;-76
2021/06/09 08:56:10;;;;;;;10.02;9.20;;;36.80;34.20;;;;;;5067458;28;20036;-72
2021/06/09 08:58:36;;;;;;;11.23;10.05;;;36.80;34.60;;;;;;5073691;28;20059;-73
2021/06/09 09:01:04;;;;;;;9.88;9.18;;;36.90;34.00;;;;;;5071180;28;20032;-74
2021/06/09 09:03:30;;;;;;;10.23;9.52;;;37.00;33.90;;;;;;5054027;28;20108;-73
2021/06/09 09:05:56;;;;;;;8.85;8.20;;;36.90;33.70;;;;;;5054205;28;20055;-72
2021/06/09 09:08:22;;;;;;;9.10;8.40;;;36.50;34.20;;;;;;5071568;28;20025;-72
2021/06/09 09:10:47;;;;;;;14.95;13.65;;;36.20;34.40;;;;;;5066205;28;20044;-74
2021/06/09 09:13:13;;;;;;;11.45;10.55;;;35.40;34.20;;;;;;5070406;28;20068;-72
2021/06/09 09:15:39;;;;;;;12.60;11.57;;;34.60;35.80;;;;;;5058882;28;20048;-72
2021/06/09 09:18:05;;;;;;;11.40;10.30;;;34.00;36.60;;;;;;5072325;28;20035;-73
2021/06/09 09:20:33;;;;;;;11.85;10.85;;;33.60;37.40;;;;;;5073293;28;20036;-72
2021/06/09 09:23:01;;;;;;;13.00;11.57;;;33.50;38.00;;;;;;5062934;28;20016;-73
2021/06/09 09:25:30;;;;;;;13.65;12.30;;;33.40;38.30;;;;;;5074190;28;20123;-72
2021/06/09 09:28:05;;;;;;;10.95;10.05;;;33.30;38.10;;;;;;5065636;28;20047;-74
2021/06/09 09:30:34;;;;;;;13.75;12.18;;;33.30;38.50;;;;;;5081672;28;20029;-71
2021/06/09 09:33:02;;;;;;;12.38;11.18;;;33.70;37.80;;;;;;5072867;28;20032;-72
2021/06/09 09:35:33;;;;;;;13.48;12.10;;;33.60;38.00;;;;;;5071299;28;20036;-72
2021/06/09 09:38:28;;;;;;;14.27;12.90;;;33.30;38.00;;;;;;5085526;28;20472;-71
2021/06/09 09:41:00;;;;;;;11.93;10.82;;;33.00;38.40;;;;;;5072277;28;20040;-72
2021/06/09 09:43:45;;;;;;;11.48;10.27;;;32.70;38.60;;;;;;5073371;28;20029;-71
2021/06/09 09:46:17;;;;;;;11.23;10.20;;;32.50;39.00;;;;;;5068343;28;20059;-72
2021/06/09 09:49:00;;;;;;;;;;;32.20;39.30;;;;;;5054850;28;20017;-72
2021/06/09 09:51:26;;;;;;;11.20;10.10;;;32.00;39.40;;;;;;5060579;28;19931;-71
2021/06/09 09:53:57;;;;;;;13.98;12.68;;;32.10;39.70;;;;;;5070878;28;20036;-72
2021/06/09 09:56:27;;;;;;;10.57;9.68;;;32.50;37.80;;;;;;5072110;28;20034;-73
2021/06/09 09:59:04;;;;;;;9.10;8.40;;;32.80;37.60;;;;;;5053359;28;20031;-72
2021/06/09 10:01:31;;;;;;;10.88;9.98;;;33.30;38.70;;;;;;5066063;28;20028;-72
2021/06/09 10:03:59;;;;;;;9.15;8.40;;;33.80;36.60;;;;;;5072857;28;20038;-72
2021/06/09 10:06:26;;;;;;;8.68;7.80;;;34.10;35.40;;;;;;5072426;28;20039;-72
2021/06/09 10:08:54;;;;;;;5.88;5.47;;;33.90;36.00;;;;;;5070125;28;20465;-73
2021/06/09 10:11:21;;;;;;;5.80;5.40;;;34.20;35.50;;;;;;5068243;28;20476;-73
2021/06/09 10:13:48;;;;;;;9.50;8.55;;;34.70;34.60;;;;;;5069233;28;20025;-72
2021/06/09 10:16:33;;;;;;;9.27;8.48;;;35.00;33.10;;;;;;5051420;28;20025;-72
2021/06/09 10:18:59;;;;;;;8.00;7.20;;;34.00;33.90;;;;;;5062949;28;20025;-72
2021/06/09 10:21:25;;;;;;;8.70;7.90;;;33.60;36.40;;;;;;5069985;28;20039;-72
2021/06/09 10:23:51;;;;;;;8.05;7.43;;;33.40;36.80;;;;;;5063658;28;20021;-75
2021/06/09 10:26:18;;;;;;;9.32;8.40;;;33.20;36.90;;;;;;5067641;28;20464;-72
2021/06/09 10:29:00;;;;;;;10.43;9.50;;;32.90;37.30;;;;;;5069932;28;20106;-71
2021/06/09 10:31:28;;;;;;;9.60;8.68;;;32.70;37.30;;;;;;5071530;28;20036;-72
2021/06/09 10:33:55;;;;;;;13.10;10.52;;;32.70;37.50;;;;;;5072013;28;20036;-77
2021/06/09 10:36:21;;;;;;;9.25;8.35;;;32.60;37.60;;;;;;5068219;28;20021;-71
2021/06/09 10:38:47;;;;;;;10.40;9.50;;;32.20;39.00;;;;;;5070023;28;20040;-72
2021/06/09 10:41:15;;;;;;;10.77;9.73;;;32.10;39.00;;;;;;5051961;28;20515;-73
2021/06/09 10:43:49;;;;;;;9.23;8.43;;;32.00;39.50;;;;;;5068124;28;20051;-71
2021/06/09 10:46:22;;;;;;;10.80;9.80;;;32.30;39.30;;;;;;5052599;28;20060;-71
2021/06/09 10:48:50;;;;;;;10.77;9.77;;;32.50;38.50;;;;;;5059667;28;20020;-71
2021/06/09 10:51:18;;;;;;;9.60;8.80;;;32.60;38.90;;;;;;5061828;28;20199;-71
2021/06/09 10:53:45;;;;;;;9.15;8.35;;;32.50;38.40;;;;;;5071238;28;20029;-72
2021/06/09 10:56:13;;;;;;;9.25;8.40;;;32.50;38.60;;;;;;5061033;28;20025;-72
2021/06/09 10:58:39;;;;;;;8.35;7.75;;;32.80;37.80;;;;;;5068371;28;20047;-72
2021/06/09 11:01:07;;;;;;;9.43;8.73;;;33.10;37.80;;;;;;5069983;28;20036;-73
2021/06/09 11:03:37;;;;;;;8.07;7.18;;;33.30;37.70;;;;;;5055177;28;20021;-72
2021/06/09 11:06:04;;;;;;;8.43;7.53;;;33.60;37.10;;;;;;5061765;28;20056;-73
2021/06/09 11:08:30;;;;;;;7.95;7.18;;;33.80;37.00;;;;;;5071163;28;20095;-77
2021/06/09 11:10:57;;;;;;;8.55;7.80;;;33.90;35.60;;;;;;5073688;28;20083;-74
2021/06/09 11:13:46;;;;;;;8.10;7.35;;;33.60;35.20;;;;;;5057591;28;21115;-71
2021/06/09 11:16:18;;;;;;;7.43;6.72;;;33.50;35.90;;;;;;5058536;28;20167;-73
2021/06/09 11:18:45;;;;;;;;;;;33.50;35.30;;;;;;5058389;28;20122;-72
2021/06/09 11:21:22;;;;;;;7.70;7.10;;;33.60;35.90;;;;;;5058606;28;20360;-72
2021/06/09 11:23:48;;;;;;;7.75;7.00;;;34.10;36.80;;;;;;5056668;28;20358;-73
2021/06/09 11:26:28;;;;;;;6.82;6.32;;;34.30;35.40;;;;;;5060341;28;20035;-70
2021/06/09 11:28:54;;;;;;;5.70;5.30;;;34.50;34.80;;;;;;5059718;28;20413;-73
2021/06/09 11:31:28;;;;;;;7.25;6.65;;;34.80;34.40;;;;;;5044354;28;20075;-71
2021/06/09 11:34:02;;;;;;;8.15;7.35;;;35.00;34.70;;;;;;5053907;28;20049;-72
2021/06/09 11:36:33;;;;;;;8.48;7.78;;;35.10;34.90;;;;;;5058685;28;20393;-72
2021/06/09 11:39:04;;;;;;;8.80;8.07;;;34.70;35.00;;;;;;5055212;28;20468;-76
2021/06/09 11:41:44;;;;;;;7.80;7.18;;;34.40;35.90;;;;;;5055733;28;20547;-72
2021/06/09 11:44:39;;;;;;;7.63;7.03;;;34.20;36.30;;;;;;5058572;28;20020;-72
2021/06/09 11:47:27;;;;;;;7.63;7.03;;;34.30;36.20;;;;;;5059472;28;20048;-72
2021/06/09 11:49:55;;;;;;;12.93;7.55;;;34.10;35.10;;;;;;5050223;28;20044;-71
2021/06/09 11:52:21;;;;;;;8.75;6.70;;;34.10;35.70;;;;;;5050166;28;20616;-71
2021/06/09 11:54:48;;;;;;;6.00;5.35;;;34.20;36.20;;;;;;5051764;28;20037;-71
2021/06/09 11:57:18;;;;;;;9.02;7.97;;;34.60;35.40;;;;;;5049629;28;20083;-72
2021/06/09 11:59:44;;;;;;;5.90;5.40;;;34.60;34.90;;;;;;5066399;28;20107;-72
2021/06/09 12:02:25;;;;;;;7.88;7.07;;;34.40;35.40;;;;;;5069775;28;20070;-71
2021/06/09 12:04:53;;;;;;;6.35;5.85;;;34.20;35.30;;;;;;5070640;28;20104;-71
2021/06/09 12:07:25;;;;;;;8.18;7.10;;;33.70;36.60;;;;;;5057503;28;20481;-72
2021/06/09 12:09:55;;;;;;;13.80;6.85;;;33.40;36.60;;;;;;5059649;28;20032;-73
2021/06/09 12:12:25;;;;;;;6.78;6.15;;;33.10;37.00;;;;;;5060662;28;20032;-71
2021/06/09 12:14:57;;;;;;;41.88;15.00;;;33.10;36.80;;;;;;5062210;28;20113;-74
2021/06/09 12:17:24;;;;;;;;;;;32.90;36.60;;;;;;5060097;28;20560;-71
2021/06/09 12:19:57;;;;;;;6.22;5.63;;;32.80;36.30;;;;;;5068632;28;19904;-71
2021/06/09 12:22:26;;;;;;;6.45;5.85;;;32.80;36.70;;;;;;5063692;28;20051;-71
2021/06/09 12:25:18;;;;;;;8.38;7.57;;;33.00;36.10;;;;;;5065093;28;20017;-71
2021/06/09 12:27:57;;;;;;;;;;;32.90;35.70;;;;;;5066352;28;20045;-71
2021/06/09 12:30:23;;;;;;;6.47;5.63;;;33.00;36.70;;;;;;5066683;28;20103;-71
2021/06/09 12:32:50;;;;;;;7.00;6.40;;;33.20;36.40;;;;;;5079645;28;20032;-72
2021/06/09 12:35:17;;;;;;;6.30;5.80;;;33.40;35.70;;;;;;5071454;28;20542;-72
2021/06/09 12:37:46;;;;;;;5.03;4.60;;;33.70;35.60;;;;;;5070893;28;20476;-76
2021/06/09 12:40:17;;;;;;;6.82;6.32;;;33.90;35.50;;;;;;5086131;28;20032;-72
2021/06/09 12:42:53;;;;;;;5.70;5.25;;;34.20;34.80;;;;;;5070792;28;20055;-73
2021/06/09 12:45:20;;;;;;;6.18;5.60;;;34.20;34.40;;;;;;5049663;28;20041;-72